sensor_id;sensor_type;location;lat;lon;timestamp;P1;durP1;ratioP1;P2;durP2;ratioP2
54555;SDS011;57291;37.520;15.106;2023-04-09T00:01:25;6.70;;;3.42;;
54555;SDS011;57291;37.520;15.106;2023-04-09T00:03:52;6.68;;;3.10;;
54555;SDS011;57291;37.520;15.106;2023-04-09T00:06:19;7.90;;;3.55;;
54555;SDS011;57291;37.520;15.106;2023-04-09T00:08:47;4.72;;;3.55;;
54555;SDS011;57291;37.520;15.106;2023-04-09T00:11:14;8.60;;;3.33;;
54555;SDS011;57291;37.520;15.106;2023-04-09T00:13:41;6.18;;;3.20;;
54555;SDS011;57291;37.520;15.106;2023-04-09T00:16:08;5.65;;;3.22;;
54555;SDS011;57291;37.520;15.106;2023-04-09T00:18:35;7.85;;;3.60;;
54555;SDS011;57291;37.520;15.106;2023-04-09T00:21:02;4.95;;;3.40;;
54555;SDS011;57291;37.520;15.106;2023-04-09T00:23:29;6.40;;;3.30;;
54555;SDS011;57291;37.520;15.106;2023-04-09T00:25:56;5.82;;;2.78;;
54555;SDS011;57291;37.520;15.106;2023-04-09T00:28:24;6.32;;;3.00;;
54555;SDS011;57291;37.520;15.106;2023-04-09T00:30:51;4.80;;;2.95;;
54555;SDS011;57291;37.520;15.106;2023-04-09T00:33:18;5.40;;;2.90;;
54555;SDS011;57291;37.520;15.106;2023-04-09T00:35:45;5.53;;;2.70;;
54555;SDS011;57291;37.520;15.106;2023-04-09T00:38:12;6.28;;;2.75;;
54555;SDS011;57291;37.520;15.106;2023-04-09T00:40:39;4.03;;;2.60;;
54555;SDS011;57291;37.520;15.106;2023-04-09T00:43:07;6.47;;;2.65;;
54555;SDS011;57291;37.520;15.106;2023-04-09T00:45:34;5.60;;;2.58;;
54555;SDS011;57291;37.520;15.106;2023-04-09T00:48:02;6.15;;;2.70;;
54555;SDS011;57291;37.520;15.106;2023-04-09T00:50:29;5.13;;;2.42;;
54555;SDS011;57291;37.520;15.106;2023-04-09T00:52:56;5.05;;;3.20;;
54555;SDS011;57291;37.520;15.106;2023-04-09T00:55:23;5.10;;;2.88;;
54555;SDS011;57291;37.520;15.106;2023-04-09T00:57:51;5.20;;;2.70;;
54555;SDS011;57291;37.520;15.106;2023-04-09T01:00:18;6.72;;;2.78;;
54555;SDS011;57291;37.520;15.106;2023-04-09T01:02:45;4.80;;;2.65;;
54555;SDS011;57291;37.520;15.106;2023-04-09T01:05:13;8.85;;;3.13;;
54555;SDS011;57291;37.520;15.106;2023-04-09T01:13:15;5.13;;;3.25;;
54555;SDS011;57291;37.520;15.106;2023-04-09T01:15:55;9.52;;;2.83;;
54555;SDS011;57291;37.520;15.106;2023-04-09T01:18:35;6.78;;;3.15;;
54555;SDS011;57291;37.520;15.106;2023-04-09T01:21:18;7.43;;;3.25;;
54555;SDS011;57291;37.520;15.106;2023-04-09T01:29:53;6.10;;;3.92;;
54555;SDS011;57291;37.520;15.106;2023-04-09T01:32:21;11.18;;;3.92;;
54555;SDS011;57291;37.520;15.106;2023-04-09T01:34:50;8.68;;;3.42;;
54555;SDS011;57291;37.520;15.106;2023-04-09T01:37:19;8.02;;;3.33;;
54555;SDS011;57291;37.520;15.106;2023-04-09T01:39:49;6.93;;;3.55;;
54555;SDS011;57291;37.520;15.106;2023-04-09T01:42:16;10.27;;;4.18;;
54555;SDS011;57291;37.520;15.106;2023-04-09T01:44:45;6.72;;;3.53;;
54555;SDS011;57291;37.520;15.106;2023-04-09T01:47:12;7.45;;;3.10;;
54555;SDS011;57291;37.520;15.106;2023-04-09T01:49:40;4.90;;;3.65;;
54555;SDS011;57291;37.520;15.106;2023-04-09T01:52:08;5.00;;;3.33;;
54555;SDS011;57291;37.520;15.106;2023-04-09T01:54:35;6.95;;;3.70;;
54555;SDS011;57291;37.520;15.106;2023-04-09T01:57:03;6.97;;;4.10;;
54555;SDS011;57291;37.520;15.106;2023-04-09T01:59:30;6.05;;;4.22;;
54555;SDS011;57291;37.520;15.106;2023-04-09T02:02:04;8.07;;;4.22;;
54555;SDS011;57291;37.520;15.106;2023-04-09T02:04:40;6.03;;;4.10;;
54555;SDS011;57291;37.520;15.106;2023-04-09T02:07:27;9.32;;;4.45;;
54555;SDS011;57291;37.520;15.106;2023-04-09T02:10:09;6.65;;;3.95;;
54555;SDS011;57291;37.520;15.106;2023-04-09T02:12:39;7.28;;;4.20;;
54555;SDS011;57291;37.520;15.106;2023-04-09T02:15:12;8.15;;;4.20;;
54555;SDS011;57291;37.520;15.106;2023-04-09T02:17:40;7.47;;;3.90;;
54555;SDS011;57291;37.520;15.106;2023-04-09T02:20:07;7.53;;;3.67;;
54555;SDS011;57291;37.520;15.106;2023-04-09T02:22:35;6.38;;;3.85;;
54555;SDS011;57291;37.520;15.106;2023-04-09T02:25:02;7.75;;;3.65;;
54555;SDS011;57291;37.520;15.106;2023-04-09T02:27:29;5.63;;;3.53;;
54555;SDS011;57291;37.520;15.106;2023-04-09T02:29:56;7.28;;;3.70;;
54555;SDS011;57291;37.520;15.106;2023-04-09T02:32:23;7.63;;;3.70;;
54555;SDS011;57291;37.520;15.106;2023-04-09T02:34:50;5.30;;;3.70;;
54555;SDS011;57291;37.520;15.106;2023-04-09T02:37:17;7.65;;;4.00;;
54555;SDS011;57291;37.520;15.106;2023-04-09T02:39:45;6.30;;;4.22;;
54555;SDS011;57291;37.520;15.106;2023-04-09T02:42:13;6.78;;;3.97;;
54555;SDS011;57291;37.520;15.106;2023-04-09T02:44:40;5.50;;;4.07;;
54555;SDS011;57291;37.520;15.106;2023-04-09T02:47:07;6.38;;;4.38;;
54555;SDS011;57291;37.520;15.106;2023-04-09T02:49:36;8.45;;;4.60;;
54555;SDS011;57291;37.520;15.106;2023-04-09T02:52:03;9.10;;;4.80;;
54555;SDS011;57291;37.520;15.106;2023-04-09T02:54:30;9.27;;;4.57;;
54555;SDS011;57291;37.520;15.106;2023-04-09T02:56:57;7.28;;;4.40;;
54555;SDS011;57291;37.520;15.106;2023-04-09T02:59:24;7.00;;;4.10;;
54555;SDS011;57291;37.520;15.106;2023-04-09T03:01:51;6.00;;;4.00;;
54555;SDS011;57291;37.520;15.106;2023-04-09T03:04:18;7.70;;;3.70;;
54555;SDS011;57291;37.520;15.106;2023-04-09T03:06:46;6.68;;;3.65;;
54555;SDS011;57291;37.520;15.106;2023-04-09T03:09:13;7.05;;;3.65;;
54555;SDS011;57291;37.520;15.106;2023-04-09T03:11:40;8.18;;;3.67;;
54555;SDS011;57291;37.520;15.106;2023-04-09T03:14:07;6.53;;;4.03;;
54555;SDS011;57291;37.520;15.106;2023-04-09T03:16:34;6.90;;;3.42;;
54555;SDS011;57291;37.520;15.106;2023-04-09T03:19:01;4.90;;;3.60;;
54555;SDS011;57291;37.520;15.106;2023-04-09T03:21:28;7.45;;;4.18;;
54555;SDS011;57291;37.520;15.106;2023-04-09T03:23:56;6.15;;;4.10;;
54555;SDS011;57291;37.520;15.106;2023-04-09T03:26:23;8.20;;;4.60;;
54555;SDS011;57291;37.520;15.106;2023-04-09T03:28:51;7.28;;;3.88;;
54555;SDS011;57291;37.520;15.106;2023-04-09T03:31:18;9.18;;;4.22;;
54555;SDS011;57291;37.520;15.106;2023-04-09T03:33:45;9.10;;;4.57;;
54555;SDS011;57291;37.520;15.106;2023-04-09T03:36:13;8.07;;;4.07;;
54555;SDS011;57291;37.520;15.106;2023-04-09T03:38:53;6.75;;;4.10;;
54555;SDS011;57291;37.520;15.106;2023-04-09T03:41:33;8.70;;;4.00;;
54555;SDS011;57291;37.520;15.106;2023-04-09T03:44:04;6.38;;;3.80;;
54555;SDS011;57291;37.520;15.106;2023-04-09T03:46:42;6.70;;;3.88;;
54555;SDS011;57291;37.520;15.106;2023-04-09T03:49:13;7.40;;;3.85;;
54555;SDS011;57291;37.520;15.106;2023-04-09T03:51:42;7.05;;;3.65;;
54555;SDS011;57291;37.520;15.106;2023-04-09T03:54:11;6.00;;;3.00;;
54555;SDS011;57291;37.520;15.106;2023-04-09T03:56:39;6.22;;;3.10;;
54555;SDS011;57291;37.520;15.106;2023-04-09T03:59:09;8.00;;;3.53;;
54555;SDS011;57291;37.520;15.106;2023-04-09T04:01:40;5.75;;;3.10;;
54555;SDS011;57291;37.520;15.106;2023-04-09T04:04:08;6.30;;;3.70;;
54555;SDS011;57291;37.520;15.106;2023-04-09T04:06:52;7.05;;;3.80;;
54555;SDS011;57291;37.520;15.106;2023-04-09T04:09:33;5.93;;;3.80;;
54555;SDS011;57291;37.520;15.106;2023-04-09T04:12:11;8.38;;;5.35;;
54555;SDS011;57291;37.520;15.106;2023-04-09T04:14:56;7.63;;;4.90;;
54555;SDS011;57291;37.520;15.106;2023-04-09T04:17:31;9.38;;;5.45;;
54555;SDS011;57291;37.520;15.106;2023-04-09T04:20:01;6.93;;;4.93;;
54555;SDS011;57291;37.520;15.106;2023-04-09T04:25:03;8.95;;;5.72;;
54555;SDS011;57291;37.520;15.106;2023-04-09T04:27:30;11.45;;;6.43;;
54555;SDS011;57291;37.520;15.106;2023-04-09T04:29:58;10.55;;;5.30;;
54555;SDS011;57291;37.520;15.106;2023-04-09T04:32:44;6.97;;;4.55;;
54555;SDS011;57291;37.520;15.106;2023-04-09T04:35:11;6.40;;;4.03;;
54555;SDS011;57291;37.520;15.106;2023-04-09T04:37:39;7.28;;;4.25;;
54555;SDS011;57291;37.520;15.106;2023-04-09T04:40:07;8.15;;;4.25;;
54555;SDS011;57291;37.520;15.106;2023-04-09T04:42:39;6.93;;;5.25;;
54555;SDS011;57291;37.520;15.106;2023-04-09T04:45:10;8.40;;;4.13;;
54555;SDS011;57291;37.520;15.106;2023-04-09T04:47:42;7.30;;;3.80;;
54555;SDS011;57291;37.520;15.106;2023-04-09T04:50:10;7.75;;;4.47;;
54555;SDS011;57291;37.520;15.106;2023-04-09T04:52:50;6.82;;;3.58;;
54555;SDS011;57291;37.520;15.106;2023-04-09T04:55:19;5.82;;;2.92;;
54555;SDS011;57291;37.520;15.106;2023-04-09T04:57:49;5.88;;;3.25;;
54555;SDS011;57291;37.520;15.106;2023-04-09T05:00:21;5.45;;;3.03;;
54555;SDS011;57291;37.520;15.106;2023-04-09T05:02:49;6.07;;;3.30;;
54555;SDS011;57291;37.520;15.106;2023-04-09T05:05:42;7.53;;;3.90;;
54555;SDS011;57291;37.520;15.106;2023-04-09T05:08:11;6.43;;;4.22;;
54555;SDS011;57291;37.520;15.106;2023-04-09T05:10:39;8.02;;;4.05;;
54555;SDS011;57291;37.520;15.106;2023-04-09T05:13:09;5.70;;;3.40;;
54555;SDS011;57291;37.520;15.106;2023-04-09T05:15:37;5.65;;;3.08;;
54555;SDS011;57291;37.520;15.106;2023-04-09T05:18:06;5.88;;;3.20;;
54555;SDS011;57291;37.520;15.106;2023-04-09T05:20:34;5.90;;;2.58;;
54555;SDS011;57291;37.520;15.106;2023-04-09T05:23:06;6.55;;;2.40;;
54555;SDS011;57291;37.520;15.106;2023-04-09T05:25:41;4.88;;;2.25;;
54555;SDS011;57291;37.520;15.106;2023-04-09T05:28:34;5.25;;;2.15;;
54555;SDS011;57291;37.520;15.106;2023-04-09T05:31:11;6.95;;;3.67;;
54555;SDS011;57291;37.520;15.106;2023-04-09T05:33:46;9.30;;;5.22;;
54555;SDS011;57291;37.520;15.106;2023-04-09T05:36:19;6.80;;;3.95;;
54555;SDS011;57291;37.520;15.106;2023-04-09T05:38:46;7.43;;;3.83;;
54555;SDS011;57291;37.520;15.106;2023-04-09T05:41:13;8.40;;;3.70;;
54555;SDS011;57291;37.520;15.106;2023-04-09T05:44:01;7.05;;;3.85;;
54555;SDS011;57291;37.520;15.106;2023-04-09T05:46:28;6.32;;;3.65;;
54555;SDS011;57291;37.520;15.106;2023-04-09T05:48:57;8.18;;;3.45;;
54555;SDS011;57291;37.520;15.106;2023-04-09T05:51:26;7.65;;;4.28;;
54555;SDS011;57291;37.520;15.106;2023-04-09T05:53:54;10.13;;;5.15;;
54555;SDS011;57291;37.520;15.106;2023-04-09T05:56:22;12.55;;;6.35;;
54555;SDS011;57291;37.520;15.106;2023-04-09T05:58:53;12.65;;;4.15;;
54555;SDS011;57291;37.520;15.106;2023-04-09T06:01:21;9.10;;;4.60;;
54555;SDS011;57291;37.520;15.106;2023-04-09T06:03:48;6.25;;;3.97;;
54555;SDS011;57291;37.520;15.106;2023-04-09T06:06:15;6.15;;;3.65;;
54555;SDS011;57291;37.520;15.106;2023-04-09T06:08:43;7.60;;;4.38;;
54555;SDS011;57291;37.520;15.106;2023-04-09T06:11:11;7.95;;;4.70;;
54555;SDS011;57291;37.520;15.106;2023-04-09T06:13:38;7.80;;;3.70;;
54555;SDS011;57291;37.520;15.106;2023-04-09T06:16:06;5.45;;;3.42;;
54555;SDS011;57291;37.520;15.106;2023-04-09T06:18:35;7.15;;;3.50;;
54555;SDS011;57291;37.520;15.106;2023-04-09T06:23:30;11.35;;;5.32;;
54555;SDS011;57291;37.520;15.106;2023-04-09T06:26:01;6.28;;;3.35;;
54555;SDS011;57291;37.520;15.106;2023-04-09T06:28:29;9.30;;;4.68;;
54555;SDS011;57291;37.520;15.106;2023-04-09T06:30:57;6.68;;;3.90;;
54555;SDS011;57291;37.520;15.106;2023-04-09T06:33:24;8.18;;;3.22;;
54555;SDS011;57291;37.520;15.106;2023-04-09T06:35:51;6.32;;;3.50;;
54555;SDS011;57291;37.520;15.106;2023-04-09T06:38:19;4.82;;;2.70;;
54555;SDS011;57291;37.520;15.106;2023-04-09T06:40:46;5.97;;;3.38;;
54555;SDS011;57291;37.520;15.106;2023-04-09T06:43:13;5.65;;;2.60;;
54555;SDS011;57291;37.520;15.106;2023-04-09T06:45:46;7.28;;;2.22;;
54555;SDS011;57291;37.520;15.106;2023-04-09T06:48:13;3.22;;;2.00;;
54555;SDS011;57291;37.520;15.106;2023-04-09T06:50:41;4.50;;;2.15;;
54555;SDS011;57291;37.520;15.106;2023-04-09T06:53:08;5.13;;;1.95;;
54555;SDS011;57291;37.520;15.106;2023-04-09T06:55:35;4.28;;;2.13;;
54555;SDS011;57291;37.520;15.106;2023-04-09T06:58:02;4.35;;;1.95;;
54555;SDS011;57291;37.520;15.106;2023-04-09T07:00:29;4.85;;;2.00;;
54555;SDS011;57291;37.520;15.106;2023-04-09T07:02:56;4.57;;;2.00;;
54555;SDS011;57291;37.520;15.106;2023-04-09T07:05:24;5.85;;;2.45;;
54555;SDS011;57291;37.520;15.106;2023-04-09T07:07:51;3.67;;;2.10;;
54555;SDS011;57291;37.520;15.106;2023-04-09T07:10:19;4.28;;;2.28;;
54555;SDS011;57291;37.520;15.106;2023-04-09T07:12:46;4.75;;;2.25;;
54555;SDS011;57291;37.520;15.106;2023-04-09T07:15:13;4.05;;;2.10;;
54555;SDS011;57291;37.520;15.106;2023-04-09T07:17:41;5.25;;;2.30;;
54555;SDS011;57291;37.520;15.106;2023-04-09T07:20:08;5.47;;;2.30;;
54555;SDS011;57291;37.520;15.106;2023-04-09T07:22:35;4.65;;;2.30;;
54555;SDS011;57291;37.520;15.106;2023-04-09T07:25:03;6.45;;;3.15;;
54555;SDS011;57291;37.520;15.106;2023-04-09T07:27:31;8.25;;;2.90;;
54555;SDS011;57291;37.520;15.106;2023-04-09T07:29:58;5.63;;;3.00;;
54555;SDS011;57291;37.520;15.106;2023-04-09T07:32:26;4.93;;;2.00;;
54555;SDS011;57291;37.520;15.106;2023-04-09T07:34:54;7.35;;;2.22;;
54555;SDS011;57291;37.520;15.106;2023-04-09T07:37:21;5.63;;;1.67;;
54555;SDS011;57291;37.520;15.106;2023-04-09T07:39:49;3.33;;;1.63;;
54555;SDS011;57291;37.520;15.106;2023-04-09T07:42:16;2.63;;;1.42;;
54555;SDS011;57291;37.520;15.106;2023-04-09T07:44:44;4.55;;;1.70;;
54555;SDS011;57291;37.520;15.106;2023-04-09T07:47:11;5.65;;;2.00;;
54555;SDS011;57291;37.520;15.106;2023-04-09T07:49:38;3.92;;;1.55;;
54555;SDS011;57291;37.520;15.106;2023-04-09T07:52:05;4.53;;;1.55;;
54555;SDS011;57291;37.520;15.106;2023-04-09T07:54:33;3.67;;;1.52;;
54555;SDS011;57291;37.520;15.106;2023-04-09T07:57:01;3.72;;;1.60;;
54555;SDS011;57291;37.520;15.106;2023-04-09T07:59:29;5.63;;;1.35;;
54555;SDS011;57291;37.520;15.106;2023-04-09T08:01:57;3.45;;;1.75;;
54555;SDS011;57291;37.520;15.106;2023-04-09T08:04:25;3.00;;;1.98;;
54555;SDS011;57291;37.520;15.106;2023-04-09T08:06:52;2.47;;;1.30;;
54555;SDS011;57291;37.520;15.106;2023-04-09T08:09:20;4.20;;;1.20;;
54555;SDS011;57291;37.520;15.106;2023-04-09T08:11:47;5.35;;;1.67;;
54555;SDS011;57291;37.520;15.106;2023-04-09T08:14:15;2.75;;;1.20;;
54555;SDS011;57291;37.520;15.106;2023-04-09T08:16:44;3.50;;;1.70;;
54555;SDS011;57291;37.520;15.106;2023-04-09T08:19:14;3.42;;;1.40;;
54555;SDS011;57291;37.520;15.106;2023-04-09T08:21:42;4.60;;;1.60;;
54555;SDS011;57291;37.520;15.106;2023-04-09T08:24:10;2.45;;;1.30;;
54555;SDS011;57291;37.520;15.106;2023-04-09T08:26:38;4.60;;;1.50;;
54555;SDS011;57291;37.520;15.106;2023-04-09T08:29:06;2.28;;;1.02;;
54555;SDS011;57291;37.520;15.106;2023-04-09T08:31:34;4.95;;;1.20;;
54555;SDS011;57291;37.520;15.106;2023-04-09T08:34:05;4.60;;;1.40;;
54555;SDS011;57291;37.520;15.106;2023-04-09T08:36:32;2.85;;;1.15;;
54555;SDS011;57291;37.520;15.106;2023-04-09T08:39:01;3.40;;;1.77;;
54555;SDS011;57291;37.520;15.106;2023-04-09T08:41:29;4.07;;;1.45;;
54555;SDS011;57291;37.520;15.106;2023-04-09T08:43:56;4.65;;;1.30;;
54555;SDS011;57291;37.520;15.106;2023-04-09T08:46:25;6.93;;;1.42;;
54555;SDS011;57291;37.520;15.106;2023-04-09T08:48:53;3.67;;;1.50;;
54555;SDS011;57291;37.520;15.106;2023-04-09T08:51:22;5.18;;;2.45;;
54555;SDS011;57291;37.520;15.106;2023-04-09T08:53:57;6.28;;;3.35;;
54555;SDS011;57291;37.520;15.106;2023-04-09T08:56:29;6.53;;;3.35;;
54555;SDS011;57291;37.520;15.106;2023-04-09T08:58:57;2.70;;;1.55;;
54555;SDS011;57291;37.520;15.106;2023-04-09T09:01:25;4.32;;;1.70;;
54555;SDS011;57291;37.520;15.106;2023-04-09T09:04:01;3.20;;;1.63;;
54555;SDS011;57291;37.520;15.106;2023-04-09T09:06:33;3.63;;;2.10;;
54555;SDS011;57291;37.520;15.106;2023-04-09T09:09:09;3.40;;;1.83;;
54555;SDS011;57291;37.520;15.106;2023-04-09T09:11:38;6.05;;;3.38;;
54555;SDS011;57291;37.520;15.106;2023-04-09T09:14:08;28.10;;;13.65;;
54555;SDS011;57291;37.520;15.106;2023-04-09T09:16:40;3.83;;;2.13;;
54555;SDS011;57291;37.520;15.106;2023-04-09T09:19:13;6.50;;;3.47;;
54555;SDS011;57291;37.520;15.106;2023-04-09T09:22:03;6.63;;;2.70;;
54555;SDS011;57291;37.520;15.106;2023-04-09T09:24:32;8.63;;;3.95;;
54555;SDS011;57291;37.520;15.106;2023-04-09T09:27:02;6.38;;;3.42;;
54555;SDS011;57291;37.520;15.106;2023-04-09T09:29:29;8.23;;;3.10;;
54555;SDS011;57291;37.520;15.106;2023-04-09T09:31:57;5.10;;;2.70;;
54555;SDS011;57291;37.520;15.106;2023-04-09T09:34:24;6.05;;;2.22;;
54555;SDS011;57291;37.520;15.106;2023-04-09T09:36:51;4.45;;;2.15;;
54555;SDS011;57291;37.520;15.106;2023-04-09T09:39:19;7.03;;;2.65;;
54555;SDS011;57291;37.520;15.106;2023-04-09T09:41:47;8.00;;;3.35;;
54555;SDS011;57291;37.520;15.106;2023-04-09T09:44:33;7.47;;;2.20;;
54555;SDS011;57291;37.520;15.106;2023-04-09T09:47:01;4.75;;;2.10;;
54555;SDS011;57291;37.520;15.106;2023-04-09T09:49:29;7.40;;;2.47;;
54555;SDS011;57291;37.520;15.106;2023-04-09T09:51:56;5.47;;;3.10;;
54555;SDS011;57291;37.520;15.106;2023-04-09T09:54:29;4.38;;;2.35;;
54555;SDS011;57291;37.520;15.106;2023-04-09T09:57:04;5.60;;;2.58;;
54555;SDS011;57291;37.520;15.106;2023-04-09T10:00:09;3.50;;;2.20;;
54555;SDS011;57291;37.520;15.106;2023-04-09T10:02:56;4.35;;;2.33;;
54555;SDS011;57291;37.520;15.106;2023-04-09T10:05:31;7.68;;;2.60;;
54555;SDS011;57291;37.520;15.106;2023-04-09T10:08:00;5.35;;;2.70;;
54555;SDS011;57291;37.520;15.106;2023-04-09T10:10:28;4.35;;;2.40;;
54555;SDS011;57291;37.520;15.106;2023-04-09T10:12:57;4.28;;;2.65;;
54555;SDS011;57291;37.520;15.106;2023-04-09T10:15:26;5.03;;;2.53;;
54555;SDS011;57291;37.520;15.106;2023-04-09T10:17:55;5.60;;;2.35;;
54555;SDS011;57291;37.520;15.106;2023-04-09T10:20:29;7.45;;;2.42;;
54555;SDS011;57291;37.520;15.106;2023-04-09T10:23:04;5.95;;;2.78;;
54555;SDS011;57291;37.520;15.106;2023-04-09T10:25:40;7.80;;;2.97;;
54555;SDS011;57291;37.520;15.106;2023-04-09T10:28:15;6.57;;;2.53;;
54555;SDS011;57291;37.520;15.106;2023-04-09T10:30:43;3.58;;;1.98;;
54555;SDS011;57291;37.520;15.106;2023-04-09T10:33:15;4.65;;;2.00;;
54555;SDS011;57291;37.520;15.106;2023-04-09T10:35:52;4.50;;;1.83;;
54555;SDS011;57291;37.520;15.106;2023-04-09T10:38:36;2.78;;;1.50;;
54555;SDS011;57291;37.520;15.106;2023-04-09T10:43:41;8.40;;;2.13;;
54555;SDS011;57291;37.520;15.106;2023-04-09T10:46:33;4.78;;;1.70;;
54555;SDS011;57291;37.520;15.106;2023-04-09T10:51:37;3.83;;;1.80;;
54555;SDS011;57291;37.520;15.106;2023-04-09T10:54:05;6.07;;;2.67;;
54555;SDS011;57291;37.520;15.106;2023-04-09T10:57:14;4.10;;;2.03;;
54555;SDS011;57291;37.520;15.106;2023-04-09T10:59:47;4.35;;;1.80;;
54555;SDS011;57291;37.520;15.106;2023-04-09T11:05:17;4.32;;;1.90;;
54555;SDS011;57291;37.520;15.106;2023-04-09T11:08:07;2.60;;;1.92;;
54555;SDS011;57291;37.520;15.106;2023-04-09T11:10:41;2.20;;;1.35;;
54555;SDS011;57291;37.520;15.106;2023-04-09T11:13:11;5.53;;;1.92;;
54555;SDS011;57291;37.520;15.106;2023-04-09T11:15:39;4.82;;;1.88;;
54555;SDS011;57291;37.520;15.106;2023-04-09T11:18:07;3.40;;;1.95;;
54555;SDS011;57291;37.520;15.106;2023-04-09T11:20:39;3.47;;;1.70;;
54555;SDS011;57291;37.520;15.106;2023-04-09T11:23:06;6.30;;;2.00;;
54555;SDS011;57291;37.520;15.106;2023-04-09T11:25:33;2.35;;;1.70;;
54555;SDS011;57291;37.520;15.106;2023-04-09T11:28:01;3.92;;;1.80;;
54555;SDS011;57291;37.520;15.106;2023-04-09T11:30:30;2.60;;;1.50;;
54555;SDS011;57291;37.520;15.106;2023-04-09T11:33:00;4.45;;;1.70;;
54555;SDS011;57291;37.520;15.106;2023-04-09T11:35:28;2.75;;;1.63;;
54555;SDS011;57291;37.520;15.106;2023-04-09T11:37:55;6.18;;;2.10;;
54555;SDS011;57291;37.520;15.106;2023-04-09T11:40:23;5.15;;;1.73;;
54555;SDS011;57291;37.520;15.106;2023-04-09T11:42:52;3.15;;;1.58;;
54555;SDS011;57291;37.520;15.106;2023-04-09T11:45:24;2.65;;;1.23;;
54555;SDS011;57291;37.520;15.106;2023-04-09T11:47:53;4.28;;;1.83;;
54555;SDS011;57291;37.520;15.106;2023-04-09T11:50:21;4.32;;;1.60;;
54555;SDS011;57291;37.520;15.106;2023-04-09T11:52:48;4.25;;;2.28;;
54555;SDS011;57291;37.520;15.106;2023-04-09T11:55:25;4.18;;;1.75;;
54555;SDS011;57291;37.520;15.106;2023-04-09T11:57:58;4.45;;;1.77;;
54555;SDS011;57291;37.520;15.106;2023-04-09T12:00:27;6.65;;;1.80;;
54555;SDS011;57291;37.520;15.106;2023-04-09T12:02:59;6.10;;;1.83;;
54555;SDS011;57291;37.520;15.106;2023-04-09T12:05:31;6.55;;;1.83;;
54555;SDS011;57291;37.520;15.106;2023-04-09T12:08:00;5.70;;;1.77;;
54555;SDS011;57291;37.520;15.106;2023-04-09T12:10:31;4.32;;;1.58;;
54555;SDS011;57291;37.520;15.106;2023-04-09T12:13:09;3.55;;;1.50;;
54555;SDS011;57291;37.520;15.106;2023-04-09T12:15:37;2.85;;;1.20;;
54555;SDS011;57291;37.520;15.106;2023-04-09T12:18:08;3.42;;;1.52;;
54555;SDS011;57291;37.520;15.106;2023-04-09T12:23:11;4.03;;;1.50;;
54555;SDS011;57291;37.520;15.106;2023-04-09T12:25:40;3.03;;;1.67;;
54555;SDS011;57291;37.520;15.106;2023-04-09T12:28:09;4.03;;;1.50;;
54555;SDS011;57291;37.520;15.106;2023-04-09T12:30:39;6.22;;;1.65;;
54555;SDS011;57291;37.520;15.106;2023-04-09T12:33:06;6.30;;;1.42;;
54555;SDS011;57291;37.520;15.106;2023-04-09T12:35:36;2.28;;;1.20;;
54555;SDS011;57291;37.520;15.106;2023-04-09T12:38:04;2.00;;;1.38;;
54555;SDS011;57291;37.520;15.106;2023-04-09T12:40:32;3.17;;;1.15;;
54555;SDS011;57291;37.520;15.106;2023-04-09T12:42:59;2.38;;;1.05;;
54555;SDS011;57291;37.520;15.106;2023-04-09T12:45:27;2.40;;;1.15;;
54555;SDS011;57291;37.520;15.106;2023-04-09T12:47:55;2.50;;;1.00;;
54555;SDS011;57291;37.520;15.106;2023-04-09T12:50:23;3.10;;;1.10;;
54555;SDS011;57291;37.520;15.106;2023-04-09T12:52:50;3.25;;;1.20;;
54555;SDS011;57291;37.520;15.106;2023-04-09T12:55:17;2.92;;;1.40;;
54555;SDS011;57291;37.520;15.106;2023-04-09T12:57:44;3.78;;;1.30;;
54555;SDS011;57291;37.520;15.106;2023-04-09T13:00:15;4.75;;;1.30;;
54555;SDS011;57291;37.520;15.106;2023-04-09T13:02:42;4.13;;;1.17;;
54555;SDS011;57291;37.520;15.106;2023-04-09T13:05:09;2.22;;;1.40;;
54555;SDS011;57291;37.520;15.106;2023-04-09T13:07:36;6.88;;;1.35;;
54555;SDS011;57291;37.520;15.106;2023-04-09T13:10:06;2.70;;;1.27;;
54555;SDS011;57291;37.520;15.106;2023-04-09T13:12:34;6.15;;;1.75;;
54555;SDS011;57291;37.520;15.106;2023-04-09T13:15:08;2.45;;;1.50;;
54555;SDS011;57291;37.520;15.106;2023-04-09T13:17:35;3.38;;;1.48;;
54555;SDS011;57291;37.520;15.106;2023-04-09T13:20:03;2.25;;;1.13;;
54555;SDS011;57291;37.520;15.106;2023-04-09T13:22:30;4.35;;;1.50;;
54555;SDS011;57291;37.520;15.106;2023-04-09T13:24:57;4.93;;;1.45;;
54555;SDS011;57291;37.520;15.106;2023-04-09T13:27:24;3.72;;;1.33;;
54555;SDS011;57291;37.520;15.106;2023-04-09T13:29:51;3.33;;;1.30;;
54555;SDS011;57291;37.520;15.106;2023-04-09T13:32:19;3.60;;;1.33;;
54555;SDS011;57291;37.520;15.106;2023-04-09T13:34:50;5.38;;;1.60;;
54555;SDS011;57291;37.520;15.106;2023-04-09T13:37:19;5.55;;;2.03;;
54555;SDS011;57291;37.520;15.106;2023-04-09T13:39:46;2.78;;;1.50;;
54555;SDS011;57291;37.520;15.106;2023-04-09T13:42:13;6.15;;;2.00;;
54555;SDS011;57291;37.520;15.106;2023-04-09T13:44:42;3.45;;;1.33;;
54555;SDS011;57291;37.520;15.106;2023-04-09T13:47:13;3.20;;;1.35;;
54555;SDS011;57291;37.520;15.106;2023-04-09T13:49:42;4.13;;;1.45;;
54555;SDS011;57291;37.520;15.106;2023-04-09T13:52:09;3.08;;;1.23;;
54555;SDS011;57291;37.520;15.106;2023-04-09T13:54:36;5.80;;;1.30;;
54555;SDS011;57291;37.520;15.106;2023-04-09T13:57:03;5.40;;;1.42;;
54555;SDS011;57291;37.520;15.106;2023-04-09T13:59:30;2.78;;;1.88;;
54555;SDS011;57291;37.520;15.106;2023-04-09T14:01:58;5.25;;;2.05;;
54555;SDS011;57291;37.520;15.106;2023-04-09T14:04:25;2.95;;;1.58;;
54555;SDS011;57291;37.520;15.106;2023-04-09T14:06:52;3.95;;;1.63;;
54555;SDS011;57291;37.520;15.106;2023-04-09T14:09:19;3.47;;;1.38;;
54555;SDS011;57291;37.520;15.106;2023-04-09T14:11:46;6.75;;;1.67;;
54555;SDS011;57291;37.520;15.106;2023-04-09T14:14:14;4.43;;;1.75;;
54555;SDS011;57291;37.520;15.106;2023-04-09T14:16:42;3.63;;;1.65;;
54555;SDS011;57291;37.520;15.106;2023-04-09T14:19:09;4.25;;;1.42;;
54555;SDS011;57291;37.520;15.106;2023-04-09T14:21:36;4.22;;;1.52;;
54555;SDS011;57291;37.520;15.106;2023-04-09T14:24:04;4.50;;;1.45;;
54555;SDS011;57291;37.520;15.106;2023-04-09T14:26:31;4.43;;;1.50;;
54555;SDS011;57291;37.520;15.106;2023-04-09T14:28:58;4.28;;;1.60;;
54555;SDS011;57291;37.520;15.106;2023-04-09T14:31:26;3.17;;;1.50;;
54555;SDS011;57291;37.520;15.106;2023-04-09T14:33:53;3.90;;;1.40;;
54555;SDS011;57291;37.520;15.106;2023-04-09T14:36:20;7.55;;;1.50;;
54555;SDS011;57291;37.520;15.106;2023-04-09T14:38:47;4.28;;;1.30;;
54555;SDS011;57291;37.520;15.106;2023-04-09T14:41:15;3.53;;;1.17;;
54555;SDS011;57291;37.520;15.106;2023-04-09T14:43:42;2.33;;;1.40;;
54555;SDS011;57291;37.520;15.106;2023-04-09T14:46:09;2.70;;;1.00;;
54555;SDS011;57291;37.520;15.106;2023-04-09T14:48:37;3.35;;;1.05;;
54555;SDS011;57291;37.520;15.106;2023-04-09T14:51:07;1.27;;;0.80;;
54555;SDS011;57291;37.520;15.106;2023-04-09T14:53:35;2.35;;;1.00;;
54555;SDS011;57291;37.520;15.106;2023-04-09T14:56:02;2.08;;;0.95;;
54555;SDS011;57291;37.520;15.106;2023-04-09T14:58:30;3.85;;;1.33;;
54555;SDS011;57291;37.520;15.106;2023-04-09T15:00:57;2.55;;;1.30;;
54555;SDS011;57291;37.520;15.106;2023-04-09T15:03:24;3.65;;;1.45;;
54555;SDS011;57291;37.520;15.106;2023-04-09T15:05:51;4.28;;;1.40;;
54555;SDS011;57291;37.520;15.106;2023-04-09T15:08:18;1.88;;;1.20;;
54555;SDS011;57291;37.520;15.106;2023-04-09T15:10:45;3.45;;;1.00;;
54555;SDS011;57291;37.520;15.106;2023-04-09T15:13:13;3.08;;;1.42;;
54555;SDS011;57291;37.520;15.106;2023-04-09T15:15:40;2.42;;;1.27;;